createdAt,value
2022-07-29T00:01:43.130Z,101180.44
2022-07-29T00:04:11.049Z,101172.81
2022-07-29T00:06:39.155Z,101179.00
2022-07-29T00:09:07.176Z,101177.31
2022-07-29T00:11:34.790Z,101178.38
2022-07-29T00:14:02.429Z,101175.38
2022-07-29T00:16:30.089Z,101178.38
2022-07-29T00:19:02.022Z,101179.50
2022-07-29T00:21:30.231Z,101167.78
2022-07-29T00:23:57.828Z,101169.09
2022-07-29T00:26:25.430Z,101174.75
2022-07-29T00:29:02.074Z,101171.72
2022-07-29T00:31:40.551Z,101169.81
2022-07-29T00:34:28.000Z,101158.97
2022-07-29T00:36:55.557Z,101169.91
2022-07-29T00:39:23.320Z,101171.00
2022-07-29T00:41:51.743Z,101183.59
2022-07-29T00:44:19.284Z,101182.53
2022-07-29T00:46:46.829Z,101175.03
2022-07-29T00:49:14.607Z,101176.22
2022-07-29T00:51:42.315Z,101172.97
2022-07-29T00:54:09.885Z,101169.19
2022-07-29T00:56:37.797Z,101169.28
2022-07-29T00:59:05.264Z,101170.91
2022-07-29T01:01:32.844Z,101171.22
2022-07-29T01:04:00.491Z,101170.69
2022-07-29T01:06:28.352Z,101162.28
2022-07-29T01:08:56.539Z,101178.81
2022-07-29T01:11:24.443Z,101179.63
2022-07-29T01:13:53.123Z,101180.22
2022-07-29T01:16:33.162Z,101164.78
2022-07-29T01:19:46.875Z,101181.84
2022-07-29T01:22:17.370Z,101179.63
2022-07-29T01:25:10.895Z,101177.69
2022-07-29T01:27:56.650Z,101176.38
2022-07-29T01:30:27.043Z,101180.78
2022-07-29T01:33:04.445Z,101174.53
2022-07-29T01:35:41.296Z,101176.16
2022-07-29T01:38:13.868Z,101175.34
2022-07-29T01:41:09.753Z,101176.66
2022-07-29T01:43:44.162Z,101176.66
2022-07-29T01:46:19.046Z,101176.91
2022-07-29T01:48:56.393Z,101187.72
2022-07-29T01:51:34.457Z,101186.84
2022-07-29T01:54:14.251Z,101196.88
2022-07-29T01:56:45.004Z,101163.69
2022-07-29T01:59:13.762Z,101187.41
2022-07-29T02:01:44.201Z,101180.84
2022-07-29T02:04:13.845Z,101183.59
2022-07-29T02:07:01.877Z,101175.66
2022-07-29T02:09:31.113Z,101181.03
2022-07-29T02:12:00.699Z,101183.69
2022-07-29T02:14:33.570Z,101177.03
2022-07-29T02:17:03.289Z,101178.13
2022-07-29T02:19:33.570Z,101192.66
2022-07-29T02:22:03.330Z,101182.13
2022-07-29T02:24:32.450Z,101189.16
2022-07-29T02:27:02.182Z,101186.31
2022-07-29T02:29:33.793Z,101183.81
2022-07-29T02:32:02.528Z,101186.44
2022-07-29T02:34:31.546Z,101196.69
2022-07-29T02:37:00.398Z,101192.19
2022-07-29T02:39:30.163Z,101188.22
2022-07-29T02:42:04.324Z,101186.50
2022-07-29T02:44:34.821Z,101183.66
2022-07-29T02:47:17.273Z,101187.94
2022-07-29T02:49:55.276Z,101195.00
2022-07-29T02:52:45.048Z,101192.66
2022-07-29T02:55:24.221Z,101197.91
2022-07-29T02:57:55.778Z,101199.69
2022-07-29T03:00:28.682Z,101203.88
2022-07-29T03:02:59.920Z,101194.31
2022-07-29T03:05:28.262Z,101193.63
2022-07-29T03:08:08.329Z,101185.69
2022-07-29T03:10:38.636Z,101199.28
2022-07-29T03:13:07.310Z,101199.25
2022-07-29T03:15:35.470Z,101201.13
2022-07-29T03:18:04.021Z,101203.09
2022-07-29T03:20:31.709Z,101197.25
2022-07-29T03:22:59.332Z,101200.53
2022-07-29T03:25:28.385Z,101198.41
2022-07-29T03:27:55.928Z,101194.38
2022-07-29T03:30:24.429Z,101197.59
2022-07-29T03:32:53.190Z,101199.66
2022-07-29T03:35:21.912Z,101190.13
2022-07-29T03:37:50.141Z,101200.13
2022-07-29T03:40:48.050Z,101205.00
2022-07-29T03:43:18.395Z,101204.00
2022-07-29T03:45:50.921Z,101202.00
2022-07-29T03:48:22.155Z,101201.84
2022-07-29T03:50:51.851Z,101207.16
2022-07-29T03:53:19.725Z,101203.09
2022-07-29T03:55:52.357Z,101216.91
2022-07-29T03:58:20.876Z,101212.66
2022-07-29T04:00:48.928Z,101210.94
2022-07-29T04:03:17.296Z,101213.94
2022-07-29T04:05:44.921Z,101210.94
2022-07-29T04:08:12.476Z,101217.66
2022-07-29T04:10:40.137Z,101215.31
2022-07-29T04:13:07.680Z,101218.75
2022-07-29T04:15:35.256Z,101226.31
2022-07-29T04:18:02.792Z,101218.31
2022-07-29T04:20:30.531Z,101214.00
2022-07-29T04:22:58.127Z,101210.66
2022-07-29T04:25:25.702Z,101208.19
2022-07-29T04:28:02.147Z,101208.91
2022-07-29T04:30:33.125Z,101212.34
2022-07-29T04:33:04.992Z,101211.72
2022-07-29T04:35:36.772Z,101211.25
2022-07-29T04:38:07.335Z,101213.44
2022-07-29T04:40:43.068Z,101208.66
2022-07-29T04:43:10.569Z,101207.34
2022-07-29T04:45:40.101Z,101207.91
2022-07-29T04:48:07.985Z,101214.75
2022-07-29T04:50:35.559Z,101211.50
2022-07-29T04:53:03.196Z,101210.66
2022-07-29T04:55:30.740Z,101214.19
2022-07-29T04:57:58.533Z,101214.44
2022-07-29T05:00:32.131Z,101203.38
2022-07-29T05:03:01.556Z,101215.75
2022-07-29T05:05:29.263Z,101201.03
2022-07-29T05:07:56.977Z,101207.41
2022-07-29T05:10:24.709Z,101208.22
2022-07-29T05:12:52.315Z,101220.19
2022-07-29T05:15:20.026Z,101208.88
2022-07-29T05:17:47.560Z,101210.75
2022-07-29T05:20:15.119Z,101215.75
2022-07-29T05:22:42.624Z,101211.94
2022-07-29T05:25:10.884Z,101214.56
2022-07-29T05:27:38.397Z,101213.63
2022-07-29T05:30:06.433Z,101219.16
2022-07-29T05:32:33.920Z,101213.81
2022-07-29T05:35:01.500Z,101207.59
2022-07-29T05:37:29.307Z,101205.38
2022-07-29T05:39:57.487Z,101206.19
2022-07-29T05:42:27.112Z,101203.34
2022-07-29T05:44:54.865Z,101201.41
2022-07-29T05:47:23.851Z,101191.50
2022-07-29T05:49:52.148Z,101189.72
2022-07-29T05:52:20.148Z,101182.84
2022-07-29T05:54:48.187Z,101197.88
2022-07-29T05:57:20.588Z,101194.69
2022-07-29T05:59:48.544Z,101180.69
2022-07-29T06:02:17.522Z,101187.59
2022-07-29T06:04:45.509Z,101184.16
2022-07-29T06:07:13.030Z,101180.44
2022-07-29T06:09:40.725Z,101177.97
2022-07-29T06:12:08.391Z,101178.22
2022-07-29T06:14:36.929Z,101176.50
2022-07-29T06:17:04.869Z,101178.00
2022-07-29T06:19:32.430Z,101187.25
2022-07-29T06:22:00.107Z,101173.00
2022-07-29T06:24:28.369Z,101173.91
2022-07-29T06:26:56.731Z,101179.13
2022-07-29T06:29:24.781Z,101176.38
2022-07-29T06:31:52.671Z,101171.44
2022-07-29T06:34:20.684Z,101172.28
2022-07-29T06:36:48.533Z,101173.50
2022-07-29T06:39:17.076Z,101179.13
2022-07-29T06:41:51.680Z,101172.94
2022-07-29T06:44:21.967Z,101175.19
2022-07-29T06:46:51.369Z,101175.03
2022-07-29T06:49:18.983Z,101176.13
2022-07-29T06:51:46.553Z,101175.88
2022-07-29T06:54:14.104Z,101170.84
2022-07-29T06:56:42.986Z,101172.31
2022-07-29T06:59:12.144Z,101162.16
2022-07-29T07:01:42.216Z,101174.69
2022-07-29T07:04:10.560Z,101176.69
2022-07-29T07:06:39.071Z,101162.66
2022-07-29T07:09:07.243Z,101166.13
2022-07-29T07:11:35.149Z,101170.91
2022-07-29T07:14:04.464Z,101158.19
2022-07-29T07:16:33.427Z,101160.16
2022-07-29T07:19:01.734Z,101168.53
2022-07-29T07:21:30.258Z,101162.03
2022-07-29T07:23:58.666Z,101169.09
2022-07-29T07:26:26.593Z,101167.47
2022-07-29T07:28:54.185Z,101158.22
2022-07-29T07:31:21.858Z,101160.28
2022-07-29T07:33:49.403Z,101156.63
2022-07-29T07:36:16.974Z,101157.09
2022-07-29T07:38:44.544Z,101130.03
2022-07-29T07:41:12.209Z,101156.06
2022-07-29T07:43:39.717Z,101152.72
2022-07-29T07:46:07.422Z,101144.06
2022-07-29T07:48:36.100Z,101143.84
2022-07-29T07:51:29.274Z,101141.22
2022-07-29T07:53:56.974Z,101147.53
2022-07-29T07:56:25.270Z,101135.50
2022-07-29T07:58:52.805Z,101142.91
2022-07-29T08:01:24.023Z,101136.59
2022-07-29T08:03:51.708Z,101142.09
2022-07-29T08:06:19.320Z,101137.88
2022-07-29T08:08:46.833Z,101137.56
2022-07-29T08:11:14.612Z,101140.00
2022-07-29T08:13:42.220Z,101138.97
2022-07-29T08:16:14.099Z,101136.13
2022-07-29T08:18:43.195Z,101121.03
2022-07-29T08:21:11.030Z,101123.97
2022-07-29T08:23:52.793Z,101130.50
2022-07-29T08:26:25.470Z,101128.63
2022-07-29T08:28:53.165Z,101129.88
2022-07-29T08:31:21.034Z,101125.03
2022-07-29T08:33:48.630Z,101112.97
2022-07-29T08:36:16.381Z,101111.69
2022-07-29T08:38:43.999Z,101112.22
2022-07-29T08:41:11.684Z,101111.06
2022-07-29T08:43:42.302Z,101107.84
2022-07-29T08:46:09.884Z,101109.56
2022-07-29T08:48:38.128Z,101102.97
2022-07-29T08:51:08.453Z,101106.34
2022-07-29T08:53:39.301Z,101102.63
2022-07-29T08:56:07.856Z,101108.88
2022-07-29T08:58:37.181Z,101095.06
2022-07-29T09:01:07.696Z,101102.63
2022-07-29T09:03:42.606Z,101096.41
2022-07-29T09:06:10.348Z,101095.97
2022-07-29T09:08:38.060Z,101092.97
2022-07-29T09:11:08.881Z,101084.72
2022-07-29T09:13:36.935Z,101083.44
2022-07-29T09:16:09.060Z,101077.44
2022-07-29T09:18:38.504Z,101070.94
2022-07-29T09:21:26.544Z,101068.84
2022-07-29T09:24:14.102Z,101075.19
2022-07-29T09:26:43.704Z,101083.88
2022-07-29T09:29:16.228Z,101068.84
2022-07-29T09:31:46.947Z,101065.06
2022-07-29T09:34:23.085Z,101068.19
2022-07-29T09:36:52.744Z,101057.47
2022-07-29T09:39:35.404Z,101061.66
2022-07-29T09:42:06.434Z,101054.22
2022-07-29T09:44:46.051Z,101056.50
2022-07-29T09:47:14.260Z,101058.03
2022-07-29T09:50:01.150Z,101060.69
2022-07-29T09:52:31.730Z,101051.31
2022-07-29T09:55:13.830Z,101045.22
2022-07-29T09:57:47.643Z,101045.91
2022-07-29T10:00:20.159Z,101037.47
2022-07-29T10:02:48.791Z,101033.44
2022-07-29T10:05:25.178Z,101029.66
2022-07-29T10:07:57.681Z,101029.94
2022-07-29T10:10:27.011Z,101028.59
2022-07-29T10:13:03.053Z,101023.63
2022-07-29T10:15:45.082Z,101018.56
2022-07-29T10:18:14.819Z,101018.53
2022-07-29T10:20:42.876Z,101016.38
2022-07-29T10:23:11.188Z,101016.72
2022-07-29T10:25:38.885Z,101021.94
2022-07-29T10:28:07.853Z,100995.66
2022-07-29T10:30:35.976Z,101016.66
2022-07-29T10:33:19.907Z,101016.84
2022-07-29T10:36:02.436Z,101027.38
2022-07-29T10:38:48.420Z,101010.25
2022-07-29T10:41:43.874Z,101009.41
2022-07-29T10:44:19.445Z,100998.63
2022-07-29T10:46:53.387Z,101016.19
2022-07-29T10:52:19.424Z,101010.91
2022-07-29T10:54:49.542Z,101014.69
2022-07-29T10:57:25.985Z,101003.88
2022-07-29T11:00:10.257Z,100999.50
2022-07-29T11:02:41.740Z,100989.44
2022-07-29T11:05:19.019Z,100993.75
2022-07-29T11:08:20.092Z,100984.47
2022-07-29T11:10:53.877Z,100994.84
2022-07-29T11:13:49.274Z,101003.94
2022-07-29T11:16:20.282Z,100986.72
2022-07-29T11:19:26.329Z,100986.56
2022-07-29T11:21:58.575Z,100979.03
2022-07-29T11:24:30.286Z,100973.78
2022-07-29T11:27:19.774Z,100978.25
2022-07-29T11:29:56.204Z,100975.81
2022-07-29T11:32:29.311Z,100972.06
2022-07-29T11:35:38.525Z,100973.06
2022-07-29T11:38:32.124Z,100967.63
2022-07-29T11:41:24.373Z,100966.59
2022-07-29T11:43:56.231Z,100968.72
2022-07-29T11:46:54.086Z,100961.94
2022-07-29T11:49:32.312Z,100965.06
2022-07-29T11:52:04.916Z,100961.06
2022-07-29T11:57:36.021Z,100951.31
2022-07-29T12:00:09.508Z,100950.41
2022-07-29T12:02:48.581Z,100944.63
2022-07-29T12:05:23.951Z,100953.06
2022-07-29T12:08:22.896Z,100941.28
2022-07-29T12:10:52.168Z,100944.50
2022-07-29T12:13:22.222Z,100943.78
2022-07-29T12:16:00.125Z,100953.81
2022-07-29T12:18:28.272Z,100947.06
2022-07-29T12:21:03.226Z,100944.28
2022-07-29T12:23:34.639Z,100955.06
2022-07-29T12:26:10.602Z,100947.13
2022-07-29T12:28:40.045Z,100947.47
2022-07-29T12:31:14.270Z,100929.16
2022-07-29T12:33:41.893Z,100945.91
2022-07-29T12:36:17.122Z,100931.16
2022-07-29T12:38:46.248Z,100935.91
2022-07-29T12:41:14.358Z,100942.34
2022-07-29T12:43:54.886Z,100956.78
2022-07-29T12:46:22.523Z,100952.00
2022-07-29T12:48:57.902Z,100960.34
2022-07-29T12:51:40.266Z,100954.28
2022-07-29T12:54:14.567Z,100946.63
2022-07-29T12:56:45.358Z,100950.19
2022-07-29T12:59:18.930Z,100952.22
2022-07-29T13:01:51.146Z,100956.72
2022-07-29T13:04:32.933Z,100951.97
2022-07-29T13:07:07.251Z,100952.00
2022-07-29T13:09:46.769Z,100942.44
2022-07-29T13:12:15.898Z,100948.03
2022-07-29T13:14:50.660Z,100952.81
2022-07-29T13:17:32.762Z,100943.25
2022-07-29T13:20:10.453Z,100945.66
2022-07-29T13:22:37.946Z,100937.25
2022-07-29T13:25:07.998Z,100934.06
2022-07-29T13:27:38.449Z,100950.00
2022-07-29T13:30:08.419Z,100944.81
2022-07-29T13:32:37.577Z,100944.81
2022-07-29T13:35:08.377Z,100950.38
2022-07-29T13:37:39.704Z,100956.75
2022-07-29T13:40:09.768Z,100970.22
2022-07-29T13:42:38.894Z,100963.66
2022-07-29T13:45:07.848Z,100959.47
2022-07-29T13:47:35.382Z,100962.34
2022-07-29T13:50:05.358Z,100960.03
2022-07-29T13:52:34.777Z,100961.88
2022-07-29T13:55:04.433Z,100957.41
2022-07-29T13:57:31.956Z,100960.13
2022-07-29T13:59:59.952Z,100960.88
2022-07-29T14:02:27.514Z,100967.56
2022-07-29T14:04:56.790Z,100973.75
2022-07-29T14:07:24.671Z,100974.28
2022-07-29T14:09:52.532Z,100968.84
2022-07-29T14:12:20.344Z,100971.63
2022-07-29T14:14:48.125Z,100979.94
2022-07-29T14:17:16.759Z,100999.78
2022-07-29T14:19:44.443Z,101012.88
2022-07-29T14:22:12.080Z,101002.13
2022-07-29T14:24:40.613Z,100997.69
2022-07-29T14:27:09.257Z,101000.41
2022-07-29T14:29:38.732Z,101019.81
2022-07-29T14:32:08.509Z,101049.50
2022-07-29T14:34:37.908Z,101076.88
2022-07-29T14:37:07.030Z,101061.69
2022-07-29T14:39:42.341Z,101069.00
2022-07-29T14:42:12.787Z,101090.66
2022-07-29T14:44:42.677Z,101107.91
2022-07-29T14:47:10.594Z,101093.47
2022-07-29T14:49:38.231Z,101088.53
2022-07-29T14:52:06.144Z,101096.16
2022-07-29T14:54:33.700Z,101106.22
2022-07-29T14:57:01.346Z,101114.63
2022-07-29T14:59:29.998Z,101117.16
2022-07-29T15:01:57.646Z,101129.44
2022-07-29T15:04:28.483Z,101122.50
2022-07-29T15:06:56.188Z,101126.63
2022-07-29T15:09:24.239Z,101124.28
2022-07-29T15:11:52.547Z,101130.72
2022-07-29T15:14:20.063Z,101126.44
2022-07-29T15:16:48.062Z,101122.88
2022-07-29T15:19:16.144Z,101123.44
2022-07-29T15:21:59.281Z,101122.44
2022-07-29T15:24:27.581Z,101117.84
2022-07-29T15:26:55.414Z,101133.00
2022-07-29T15:29:23.079Z,101142.41
2022-07-29T15:31:50.853Z,101145.59
2022-07-29T15:34:18.527Z,101139.44
2022-07-29T15:36:53.872Z,101144.06
2022-07-29T15:39:23.064Z,101138.88
2022-07-29T15:41:51.519Z,101100.78
2022-07-29T15:44:20.870Z,101127.72
2022-07-29T15:47:05.167Z,101138.78
2022-07-29T15:49:48.309Z,101135.28
2022-07-29T15:52:25.436Z,101131.25
2022-07-29T15:54:57.990Z,101138.06
2022-07-29T15:57:26.093Z,101132.91
2022-07-29T15:59:53.734Z,101138.66
2022-07-29T16:02:21.573Z,101155.66
2022-07-29T16:04:49.401Z,101159.25
2022-07-29T16:07:17.131Z,101170.75
2022-07-29T16:09:52.839Z,101183.22
2022-07-29T16:12:21.546Z,101177.38
2022-07-29T16:14:51.371Z,101162.69
2022-07-29T16:17:19.623Z,101161.03
2022-07-29T16:19:47.545Z,101144.09
2022-07-29T16:22:15.312Z,101142.47
2022-07-29T16:24:42.974Z,101148.94
2022-07-29T16:27:10.476Z,101150.38
2022-07-29T16:29:38.123Z,101158.81
2022-07-29T16:32:07.082Z,101162.69
2022-07-29T16:34:34.648Z,101158.63
2022-07-29T16:37:02.495Z,101155.88
2022-07-29T16:39:30.316Z,101154.41
2022-07-29T16:42:00.471Z,101157.31
2022-07-29T16:44:30.774Z,101158.75
2022-07-29T16:46:59.962Z,101155.22
2022-07-29T16:49:28.746Z,101145.34
2022-07-29T16:51:56.349Z,101141.63
2022-07-29T16:54:23.966Z,101137.41
2022-07-29T16:56:51.493Z,101141.94
2022-07-29T16:59:18.953Z,101150.31
2022-07-29T17:01:46.622Z,101152.56
2022-07-29T17:04:15.303Z,101157.53
2022-07-29T17:06:43.155Z,101154.66
2022-07-29T17:09:15.266Z,101156.91
2022-07-29T17:11:52.910Z,101162.19
2022-07-29T17:14:25.312Z,101171.88
2022-07-29T17:17:00.406Z,101149.41
2022-07-29T17:19:30.627Z,101159.25
2022-07-29T17:22:06.420Z,101159.25
2022-07-29T17:24:38.183Z,101156.31
2022-07-29T17:27:06.658Z,101162.28
2022-07-29T17:29:37.870Z,101163.06
2022-07-29T17:32:07.811Z,101169.53
2022-07-29T17:34:40.920Z,101171.47
2022-07-29T17:37:10.911Z,101175.03
2022-07-29T17:39:41.063Z,101182.25
2022-07-29T17:42:10.277Z,101189.66
2022-07-29T17:44:38.799Z,101197.41
2022-07-29T17:47:15.632Z,101205.94
2022-07-29T17:49:44.679Z,101215.91
2022-07-29T17:52:12.325Z,101211.03
2022-07-29T17:54:39.839Z,101216.53
2022-07-29T17:57:07.422Z,101209.41
2022-07-29T17:59:34.989Z,101211.34
2022-07-29T18:02:02.863Z,101212.00
2022-07-29T18:04:31.649Z,101220.84
2022-07-29T18:06:59.503Z,101228.38
2022-07-29T18:09:27.289Z,101229.53
2022-07-29T18:11:54.866Z,101227.56
2022-07-29T18:14:22.407Z,101236.94
2022-07-29T18:16:49.948Z,101241.41
2022-07-29T18:19:17.601Z,101259.91
2022-07-29T18:21:54.156Z,101261.03
2022-07-29T18:24:27.913Z,101264.09
2022-07-29T18:26:56.725Z,101258.41
2022-07-29T18:29:24.554Z,101252.06
2022-07-29T18:31:52.120Z,101243.63
2022-07-29T18:34:19.663Z,101246.69
2022-07-29T18:36:47.248Z,101235.06
2022-07-29T18:39:20.554Z,101234.59
2022-07-29T18:41:51.244Z,101228.31
2022-07-29T18:44:22.692Z,101221.66
2022-07-29T18:46:52.178Z,101221.25
2022-07-29T18:49:20.067Z,101223.19
2022-07-29T18:51:48.253Z,101209.78
2022-07-29T18:54:17.635Z,101213.44
2022-07-29T18:56:46.617Z,101212.53
2022-07-29T18:59:19.967Z,101202.38
2022-07-29T19:01:48.756Z,101194.47
2022-07-29T19:04:17.575Z,101194.47
2022-07-29T19:06:45.387Z,101185.25
2022-07-29T19:09:12.939Z,101186.75
2022-07-29T19:11:40.944Z,101184.34
2022-07-29T19:14:08.543Z,101183.00
2022-07-29T19:16:36.185Z,101171.69
2022-07-29T19:19:04.051Z,101163.47
2022-07-29T19:21:31.669Z,101177.97
2022-07-29T19:24:02.422Z,101175.84
2022-07-29T19:26:36.810Z,101174.06
2022-07-29T19:29:04.796Z,101153.00
2022-07-29T19:31:32.518Z,101157.72
2022-07-29T19:34:00.098Z,101163.81
2022-07-29T19:36:27.670Z,101160.09
2022-07-29T19:38:55.283Z,101149.88
2022-07-29T19:41:22.876Z,101163.75
2022-07-29T19:43:53.074Z,101163.75
2022-07-29T19:46:22.186Z,101155.84
2022-07-29T19:48:50.534Z,101162.44
2022-07-29T19:51:18.262Z,101155.47
2022-07-29T19:53:45.777Z,101150.00
2022-07-29T19:56:13.558Z,101154.97
2022-07-29T19:58:44.208Z,101158.13
2022-07-29T20:01:12.899Z,101147.78
2022-07-29T20:03:40.551Z,101153.56
2022-07-29T20:06:08.756Z,101152.44
2022-07-29T20:08:36.415Z,101150.22
2022-07-29T20:11:04.104Z,101150.03
2022-07-29T20:13:33.410Z,101151.66
2022-07-29T20:16:02.276Z,101154.16
2022-07-29T20:18:29.875Z,101153.19
2022-07-29T20:20:57.803Z,101148.78
2022-07-29T20:23:25.346Z,101155.69
2022-07-29T20:25:54.049Z,101152.78
2022-07-29T20:28:22.697Z,101158.34
2022-07-29T20:30:50.275Z,101156.50
2022-07-29T20:33:18.406Z,101162.91
2022-07-29T20:35:47.502Z,101155.31
2022-07-29T20:38:18.155Z,101160.78
2022-07-29T20:40:46.598Z,101153.28
2022-07-29T20:43:14.806Z,101135.47
2022-07-29T20:45:42.486Z,101170.31
2022-07-29T20:48:10.791Z,101163.94
2022-07-29T20:50:38.326Z,101171.81
2022-07-29T20:53:05.921Z,101168.16
2022-07-29T20:55:33.587Z,101160.53
2022-07-29T20:58:01.224Z,101167.09
2022-07-29T21:00:29.075Z,101165.00
2022-07-29T21:02:56.680Z,101158.09
2022-07-29T21:05:24.585Z,101171.66
2022-07-29T21:07:56.521Z,101163.28
2022-07-29T21:10:26.023Z,101169.63
2022-07-29T21:12:53.511Z,101174.06
2022-07-29T21:15:22.044Z,101172.47
2022-07-29T21:17:49.568Z,101167.00
2022-07-29T21:20:19.136Z,101169.72
2022-07-29T21:22:46.629Z,101173.06
2022-07-29T21:25:14.310Z,101175.84
2022-07-29T21:28:00.059Z,101173.22
2022-07-29T21:30:27.612Z,101182.53
2022-07-29T21:32:55.108Z,101164.59
2022-07-29T21:35:30.327Z,101174.94
2022-07-29T21:38:10.551Z,101182.13
2022-07-29T21:40:38.376Z,101171.25
2022-07-29T21:43:08.415Z,101172.94
2022-07-29T21:45:37.287Z,101169.22
2022-07-29T21:48:06.699Z,101157.09
2022-07-29T21:50:35.775Z,101168.28
2022-07-29T21:53:03.379Z,101163.38
2022-07-29T21:55:32.033Z,101168.81
2022-07-29T21:58:00.076Z,101172.66
2022-07-29T22:00:28.747Z,101184.69
2022-07-29T22:02:57.622Z,101179.16
2022-07-29T22:05:25.130Z,101194.94
2022-07-29T22:07:54.515Z,101191.22
2022-07-29T22:10:28.994Z,101190.69
2022-07-29T22:12:58.316Z,101184.19
2022-07-29T22:15:26.409Z,101187.50
2022-07-29T22:17:54.190Z,101183.97
2022-07-29T22:20:21.953Z,101188.31
2022-07-29T22:22:49.445Z,101193.19
2022-07-29T22:25:17.973Z,101191.03
2022-07-29T22:27:45.518Z,101185.09
2022-07-29T22:30:13.678Z,101182.41
2022-07-29T22:32:41.187Z,101186.25
2022-07-29T22:35:09.099Z,101183.81
2022-07-29T22:37:36.703Z,101182.19
2022-07-29T22:40:04.778Z,101185.22
2022-07-29T22:42:32.633Z,101175.47
2022-07-29T22:45:00.154Z,101177.16
2022-07-29T22:47:46.480Z,101172.84
2022-07-29T22:50:15.249Z,101170.75
2022-07-29T22:52:42.776Z,101166.63
2022-07-29T22:55:10.928Z,101170.69
2022-07-29T22:57:38.497Z,101168.47
2022-07-29T23:00:07.053Z,101171.69
2022-07-29T23:02:36.669Z,101164.72
2022-07-29T23:05:04.913Z,101179.88
2022-07-29T23:07:34.234Z,101183.75
2022-07-29T23:10:02.160Z,101185.13
2022-07-29T23:12:31.362Z,101196.88
2022-07-29T23:14:58.928Z,101178.44
2022-07-29T23:17:26.489Z,101175.19
2022-07-29T23:19:54.029Z,101189.53
2022-07-29T23:22:21.551Z,101191.75
2022-07-29T23:24:49.016Z,101196.41
2022-07-29T23:27:16.503Z,101201.63
2022-07-29T23:29:44.034Z,101199.78
2022-07-29T23:32:11.537Z,101208.84
2022-07-29T23:34:39.988Z,101209.97
2022-07-29T23:37:07.684Z,101205.69
2022-07-29T23:39:35.202Z,101215.28
2022-07-29T23:42:03.008Z,101221.09
2022-07-29T23:44:30.501Z,101229.13
2022-07-29T23:46:58.210Z,101226.22
2022-07-29T23:49:26.109Z,101221.06
2022-07-29T23:51:53.655Z,101230.41
2022-07-29T23:54:21.180Z,101235.63
2022-07-29T23:56:48.659Z,101239.78
2022-07-29T23:59:16.172Z,101243.66
